Pagrindinis puslapis
METAR-TAF:

METAR-TAF

Oro uostai :

Muş, Turkija

platuma: 38-45N, ilguma: 041-40E, Aukštis: 1266 m

Dabartinis oras

Ataskaita buvo paskelbta 4 valandos ir 38 minutes, ne 13:50 UTC
Vėjas 7 kt iš Pietryčių
Temperatūra 29°C
Drėgmė 19%
Slėgis 1014 hPa
Matomumas 10 km arba daugiau
Išsisklaidę debesys ne aukštis 4000 ft
Išsisklaidę debesys ne aukštis 9000 ft

METAR: LTCK 151350Z 14007KT 9999 SCT040 SCT090 29/03 Q1014

Laikas: 21:28 (18:28 UTC)

Prognozė

Ataskaita buvo paskelbta 4 valandos ir 48 minutes, ne 13:40 UTC
Prognozė galioja nuo 15 metu 15 UTC su 15 metu 24 UTC
Vėjas 9 kt iš Šiaurės
Matomumas 10 km arba daugiau
Išsisklaidę debesys ne aukštis 3500 ft
Su prošvaistėmis ne aukštis 7000 ft

TAF: LTCK 151340Z 1515/1524 35009KT 9999 SCT035 BKN070

Orai ataskaitas ir orų prognozės (METAR, TAF).

turimą stotys yra geltonos ir raudonos taškus žemėlapyje.

Perkelti pele per norėdami pamatyti stoties vardą.

Tada spustelėkite, norėdami matyti oro stebėjimo ir prognozės.

Norėdami pakeisti žemėlapį: spustelėkite ant žalios mygtukų su juodo kryžiaus žemyn,; žalią mygtuką su brūkšneliu, jei norite nutolinti; arba žalių rodyklių gretimoms žemėlapius.


METAR-TAF: